createdAt,value
2023-04-07T00:00:48.055Z,56.88
2023-04-07T00:05:49.426Z,57.45
2023-04-07T00:10:50.816Z,56.54
2023-04-07T00:15:52.098Z,56.99
2023-04-07T00:20:56.315Z,57.15
2023-04-07T00:25:57.632Z,57.91
2023-04-07T00:30:58.914Z,57.58
2023-04-07T00:36:00.452Z,57.49
2023-04-07T00:41:01.765Z,56.51
2023-04-07T00:46:03.066Z,56.77
2023-04-07T00:51:04.439Z,56.66
2023-04-07T00:56:06.295Z,56.81
2023-04-07T01:01:07.547Z,58.27
2023-04-07T01:06:08.853Z,57.16
2023-04-07T01:11:10.062Z,57.99
2023-04-07T01:16:11.317Z,58.33
2023-04-07T01:21:12.621Z,57.97
2023-04-07T01:26:14.267Z,57.35
2023-04-07T01:31:16.340Z,56.87
2023-04-07T01:36:17.599Z,58.12
2023-04-07T01:41:18.858Z,58.20
2023-04-07T01:46:20.089Z,57.73
2023-04-07T01:51:21.667Z,58.81
2023-04-07T01:56:23.021Z,59.22
2023-04-07T02:01:24.332Z,58.44
2023-04-07T02:06:26.811Z,58.21
2023-04-07T02:11:28.065Z,58.42
2023-04-07T02:16:29.311Z,57.87
2023-04-07T02:21:30.693Z,58.65
2023-04-07T02:26:32.929Z,58.69
2023-04-07T02:31:35.979Z,58.79
2023-04-07T02:36:37.376Z,59.72
2023-04-07T02:41:38.640Z,59.33
2023-04-07T02:46:40.051Z,59.38
2023-04-07T02:51:41.283Z,59.79
2023-04-07T02:56:42.598Z,60.68
2023-04-07T03:01:43.883Z,61.80
2023-04-07T03:06:45.170Z,61.70
2023-04-07T03:11:46.550Z,60.86
2023-04-07T03:16:47.928Z,60.93
2023-04-07T03:21:49.299Z,61.10
2023-04-07T03:26:51.611Z,61.23
2023-04-07T03:31:52.919Z,61.14
2023-04-07T03:36:54.183Z,60.68
2023-04-07T03:41:56.230Z,60.92
2023-04-07T03:46:57.498Z,61.00
2023-04-07T03:51:58.823Z,60.20
2023-04-07T03:57:01.493Z,60.81
2023-04-07T04:02:02.857Z,61.31
2023-04-07T04:07:04.215Z,61.28
2023-04-07T04:12:05.488Z,61.36
2023-04-07T04:17:06.749Z,61.12
2023-04-07T04:22:07.983Z,60.58
2023-04-07T04:27:09.188Z,61.67
2023-04-07T04:32:10.432Z,62.19
2023-04-07T04:37:11.737Z,61.79
2023-04-07T04:42:12.995Z,61.37
2023-04-07T04:47:14.280Z,61.78
2023-04-07T04:52:15.574Z,62.20
2023-04-07T04:57:16.863Z,61.69
2023-04-07T05:02:18.173Z,61.39
2023-04-07T05:07:19.468Z,61.81
2023-04-07T05:12:21.020Z,62.19
2023-04-07T05:17:22.278Z,62.20
2023-04-07T05:22:23.513Z,63.09
2023-04-07T05:27:24.730Z,62.88
2023-04-07T05:32:26.873Z,62.62
2023-04-07T05:37:28.174Z,63.54
2023-04-07T05:42:29.442Z,63.05
2023-04-07T05:47:31.005Z,63.25
2023-04-07T05:52:32.247Z,63.42
2023-04-07T05:57:34.198Z,63.38
2023-04-07T06:02:35.746Z,63.54
2023-04-07T06:07:37.077Z,63.02
2023-04-07T06:12:38.450Z,62.84
2023-04-07T06:17:39.769Z,62.41
2023-04-07T06:22:41.292Z,62.77
2023-04-07T06:27:42.581Z,65.08
2023-04-07T06:32:43.996Z,66.29
2023-04-07T06:37:45.432Z,65.47
2023-04-07T06:42:46.652Z,62.83
2023-04-07T06:47:48.232Z,63.92
2023-04-07T06:52:49.504Z,65.93
2023-04-07T06:57:52.314Z,65.17
2023-04-07T07:02:53.678Z,65.72
2023-04-07T07:07:55.065Z,61.98
2023-04-07T07:12:56.373Z,59.80
2023-04-07T07:17:57.659Z,59.07
2023-04-07T07:22:59.930Z,59.07
2023-04-07T07:28:01.217Z,57.14
2023-04-07T07:33:02.527Z,56.74
2023-04-07T07:38:03.926Z,55.34
2023-04-07T07:43:06.109Z,54.12
2023-04-07T07:48:07.387Z,53.93
2023-04-07T07:53:08.641Z,52.50
2023-04-07T07:58:09.889Z,51.73
2023-04-07T08:03:11.443Z,50.95
2023-04-07T08:08:12.833Z,51.49
2023-04-07T08:13:14.047Z,50.80
2023-04-07T08:18:15.310Z,51.10
2023-04-07T08:23:16.677Z,48.75
2023-04-07T08:28:17.963Z,51.12
2023-04-07T08:33:19.215Z,50.56
2023-04-07T08:38:20.577Z,48.26
2023-04-07T08:43:21.815Z,48.58
2023-04-07T08:48:23.112Z,50.54
2023-04-07T08:53:24.406Z,47.81
2023-04-07T08:58:26.051Z,45.09
2023-04-07T09:03:27.464Z,46.63
2023-04-07T09:08:28.832Z,46.37
2023-04-07T09:13:31.492Z,44.74
2023-04-07T09:18:32.888Z,44.70
2023-04-07T09:23:34.257Z,43.63
2023-04-07T09:28:35.559Z,43.13
2023-04-07T09:33:36.979Z,41.01
2023-04-07T09:38:38.273Z,41.54
2023-04-07T09:43:39.723Z,42.29
2023-04-07T09:48:41.075Z,42.10
2023-04-07T09:53:42.314Z,40.57
2023-04-07T09:58:43.596Z,43.48
2023-04-07T10:03:44.913Z,42.93
2023-04-07T10:08:46.808Z,42.69
2023-04-07T10:13:48.542Z,40.32
2023-04-07T10:18:49.938Z,39.69
2023-04-07T10:23:51.585Z,38.70
2023-04-07T10:28:53.058Z,36.31
2023-04-07T10:33:54.927Z,36.09
2023-04-07T10:38:56.859Z,36.31
2023-04-07T10:43:58.701Z,36.79
2023-04-07T10:49:00.157Z,36.42
2023-04-07T10:54:02.287Z,36.05
2023-04-07T10:59:03.567Z,35.42
2023-04-07T11:04:06.646Z,35.09
2023-04-07T11:09:07.968Z,35.18
2023-04-07T11:14:09.338Z,34.48
2023-04-07T11:19:10.689Z,34.58
2023-04-07T11:24:11.913Z,34.98
2023-04-07T11:29:13.477Z,33.10
2023-04-07T11:34:14.691Z,32.83
2023-04-07T11:39:16.045Z,33.64
2023-04-07T11:44:17.679Z,33.23
2023-04-07T11:49:18.985Z,34.20
2023-04-07T11:54:20.272Z,32.29
2023-04-07T11:59:22.871Z,33.89
2023-04-07T12:04:24.259Z,35.38
2023-04-07T12:09:27.252Z,34.42
2023-04-07T12:14:28.496Z,33.71
2023-04-07T12:19:29.809Z,34.41
2023-04-07T12:24:32.485Z,33.88
2023-04-07T12:29:33.989Z,31.88
2023-04-07T12:34:37.462Z,33.73
2023-04-07T12:39:38.727Z,33.83
2023-04-07T12:44:39.972Z,33.88
2023-04-07T12:49:41.207Z,33.73
2023-04-07T12:54:44.202Z,33.09
2023-04-07T12:59:45.760Z,31.14
2023-04-07T13:04:47.080Z,31.01
2023-04-07T13:09:48.340Z,30.83
2023-04-07T13:14:59.718Z,32.24
2023-04-07T13:20:01.849Z,32.42
2023-04-07T13:25:03.125Z,31.51
2023-04-07T13:30:04.377Z,32.12
2023-04-07T13:35:05.606Z,30.54
2023-04-07T13:40:06.865Z,31.89
2023-04-07T13:45:08.204Z,31.29
2023-04-07T13:50:09.465Z,30.35
2023-04-07T13:55:10.940Z,30.42
2023-04-07T14:00:12.346Z,28.29
2023-04-07T14:05:13.795Z,30.42
2023-04-07T14:10:15.333Z,28.27
2023-04-07T14:15:18.350Z,26.03
2023-04-07T14:20:19.755Z,26.05
2023-04-07T14:25:20.982Z,27.09
2023-04-07T14:30:22.216Z,27.10
2023-04-07T14:35:23.564Z,23.76
2023-04-07T14:40:24.956Z,24.45
2023-04-07T14:45:26.277Z,26.77
2023-04-07T14:50:28.031Z,24.22
2023-04-07T14:55:30.921Z,23.32
2023-04-07T15:00:32.175Z,26.81
2023-04-07T15:05:33.386Z,25.43
2023-04-07T15:10:35.577Z,24.91
2023-04-07T15:15:36.870Z,26.31
2023-04-07T15:20:38.098Z,27.77
2023-04-07T15:25:39.319Z,26.72
2023-04-07T15:30:40.583Z,26.57
2023-04-07T15:35:41.872Z,27.76
2023-04-07T15:40:43.239Z,29.37
2023-04-07T15:45:44.763Z,30.08
2023-04-07T15:50:46.229Z,29.87
2023-04-07T15:55:47.509Z,30.55
2023-04-07T16:00:48.766Z,29.09
2023-04-07T16:05:51.213Z,27.11
2023-04-07T16:10:52.605Z,26.41
2023-04-07T16:15:53.900Z,28.35
2023-04-07T16:20:55.283Z,29.39
2023-04-07T16:25:57.668Z,27.67
2023-04-07T16:30:58.903Z,28.94
2023-04-07T16:36:00.233Z,28.62
2023-04-07T16:41:04.854Z,29.74
2023-04-07T16:46:06.690Z,28.76
2023-04-07T16:51:07.949Z,30.70
2023-04-07T16:56:09.158Z,33.71
2023-04-07T17:01:10.461Z,35.89
2023-04-07T17:06:12.011Z,31.37
2023-04-07T17:11:13.254Z,32.57
2023-04-07T17:16:14.820Z,36.49
2023-04-07T17:21:16.109Z,44.31
2023-04-07T17:26:17.350Z,36.70
2023-04-07T17:31:18.601Z,33.59
2023-04-07T17:36:19.971Z,36.63
2023-04-07T17:41:21.277Z,37.14
2023-04-07T17:46:23.067Z,38.14
2023-04-07T17:51:25.209Z,39.76
2023-04-07T17:56:26.592Z,41.09
2023-04-07T18:01:27.898Z,40.68
2023-04-07T18:06:29.903Z,40.69
2023-04-07T18:11:32.421Z,39.16
2023-04-07T18:16:34.120Z,40.28
2023-04-07T18:21:35.537Z,42.23
2023-04-07T18:26:36.868Z,45.76
2023-04-07T18:31:38.161Z,45.61
2023-04-07T18:36:42.866Z,46.85
2023-04-07T18:41:46.253Z,48.76
2023-04-07T18:46:47.569Z,51.00
2023-04-07T18:51:49.188Z,50.76
2023-04-07T18:56:50.515Z,51.52
2023-04-07T19:01:52.205Z,50.26
2023-04-07T19:06:53.560Z,49.63
2023-04-07T19:11:54.787Z,49.95
2023-04-07T19:16:56.163Z,51.06
2023-04-07T19:21:57.629Z,52.39
2023-04-07T19:26:58.888Z,52.78
2023-04-07T19:32:00.418Z,54.51
2023-04-07T19:37:01.815Z,54.11
2023-04-07T19:42:03.043Z,53.95
2023-04-07T19:47:06.120Z,55.09
2023-04-07T19:52:07.671Z,54.59
2023-04-07T19:57:09.053Z,55.49
2023-04-07T20:02:10.429Z,57.23
2023-04-07T20:07:11.772Z,55.88
2023-04-07T20:12:14.898Z,56.35
2023-04-07T20:17:16.169Z,58.46
2023-04-07T20:22:17.404Z,57.32
2023-04-07T20:27:18.645Z,58.22
2023-04-07T20:32:19.865Z,59.36
2023-04-07T20:37:21.147Z,58.22
2023-04-07T20:42:22.440Z,58.80
2023-04-07T20:47:24.591Z,58.79
2023-04-07T20:52:27.265Z,56.56
2023-04-07T20:57:28.520Z,55.70
2023-04-07T21:02:29.887Z,55.71
2023-04-07T21:07:31.528Z,55.78
2023-04-07T21:12:32.892Z,55.34
2023-04-07T21:17:34.199Z,56.79
2023-04-07T21:22:35.528Z,60.54
2023-04-07T21:27:38.239Z,58.88
2023-04-07T21:32:39.685Z,57.68
2023-04-07T21:37:41.072Z,56.71
2023-04-07T21:42:42.497Z,57.24
2023-04-07T21:47:43.854Z,55.92
2023-04-07T21:52:45.370Z,55.93
2023-04-07T21:57:46.857Z,55.03
2023-04-07T22:02:48.513Z,54.34
2023-04-07T22:07:50.148Z,54.96
2023-04-07T22:12:51.393Z,56.10
2023-04-07T22:17:52.735Z,56.77
2023-04-07T22:22:57.468Z,56.28
2023-04-07T22:27:59.204Z,55.14
2023-04-07T22:33:00.511Z,55.90
2023-04-07T22:38:01.881Z,55.18
2023-04-07T22:43:03.166Z,54.11
2023-04-07T22:48:04.483Z,53.84
2023-04-07T22:53:07.270Z,53.50
2023-04-07T22:58:08.575Z,53.34
2023-04-07T23:03:09.975Z,53.20
2023-04-07T23:08:11.295Z,53.00
2023-04-07T23:13:15.132Z,53.26
2023-04-07T23:18:16.415Z,53.98
2023-04-07T23:23:17.688Z,53.95
2023-04-07T23:28:19.004Z,52.98
2023-04-07T23:33:20.445Z,52.66
2023-04-07T23:38:22.081Z,53.44
2023-04-07T23:43:23.333Z,54.85
2023-04-07T23:48:26.185Z,54.64
2023-04-07T23:53:27.456Z,54.46
2023-04-07T23:58:28.725Z,53.43
